Time;durP1;ratioP1;P1;durP2;ratioP2;P2;SDS_P1;SDS_P2;PMS_P1;PMS_P2;Temp;Humidity;BMP_temperature;BMP_pressure;BME280_temperature;BME280_humidity;BME280_pressure;Samples;Min_cycle;Max_cycle;Signal;HPM_P1;HPM_P2
2022/09/07 00:00:54;;;;;;;;;;;;;;;23.51;65.44;101304.03;7403724;19;1638;-68
2022/09/07 00:03:23;;;;;;;;;;;;;;;23.50;65.62;101329.34;7405060;19;1635;-68
2022/09/07 00:05:52;;;;;;;;;;;;;;;23.45;65.34;101300.09;7404733;19;1852;-68
2022/09/07 00:08:22;;;;;;;;;;;;;;;23.54;65.28;101314.53;7401577;19;1748;-68
2022/09/07 00:10:54;;;;;;;;;;;;;;;23.54;65.32;101317.25;7402238;19;1749;-68
2022/09/07 00:13:22;;;;;;;;;;;;;;;23.51;65.21;101307.56;7405410;19;1673;-68
2022/09/07 00:15:53;;;;;;;;;;;;;;;23.53;65.25;101320.94;7403420;19;1662;-60
2022/09/07 00:18:22;;;;;;;;;;;;;;;23.51;65.48;101302.19;7403675;19;1550;-60
2022/09/07 00:20:59;;;;;;;;;;;;;;;23.52;65.16;101306.59;7402788;19;1742;-68
2022/09/07 00:23:28;;;;;;;;;;;;;;;23.51;65.18;101314.84;7399680;19;1737;-68
2022/09/07 00:26:00;;;;;;;;;;;;;;;23.47;65.21;101302.66;7403178;19;1853;-68
2022/09/07 00:28:28;;;;;;;;;;;;;;;23.48;65.39;101299.81;7400744;19;1527;-68
2022/09/07 00:31:00;;;;;;;;;;;;;;;23.50;65.41;101305.06;7400952;19;1682;-68
2022/09/07 00:33:28;;;;;;;;;;;;;;;23.50;65.39;101305.06;7402930;19;1544;-68
2022/09/07 00:35:57;;;;;;;;;;;;;;;23.50;65.33;101303.19;7408718;19;1598;-68
2022/09/07 00:38:25;;;;;;;;;;;;;;;23.48;65.23;101307.91;7412322;19;1661;-68
2022/09/07 00:40:53;;;;;;;;;;;;;;;23.49;65.37;101312.28;7409812;19;1604;-68
2022/09/07 00:43:31;;;;;;;;;;;;;;;23.50;65.21;101303.19;7410704;19;1567;-68
2022/09/07 00:46:02;;;;;;;;;;;;;;;23.48;65.47;101307.06;7408978;19;1849;-68
2022/09/07 00:48:32;;;;;;;;;;;;;;;23.46;65.55;101300.94;7409339;19;1630;-68
2022/09/07 00:51:03;;;;;;;;;;;;;;;23.46;65.18;101322.53;7410764;19;1519;-68
2022/09/07 00:53:32;;;;;;;;;;;;;;;23.47;65.20;101300.78;7410299;19;1649;-68
2022/09/07 00:56:01;;;;;;;;;;;;;;;23.49;65.21;101297.94;7410732;19;1628;-67
2022/09/07 00:58:29;;;;;;;;;;;;;;;23.48;65.46;101296.25;7409472;19;1619;-68
2022/09/07 01:00:58;;;;;;;;;;;;;;;23.47;65.28;101286.44;7410545;19;1696;-67
2022/09/07 01:03:31;;;;;;;;;;;;;;;23.50;65.19;101302.34;7411198;19;1764;-68
2022/09/07 01:06:02;;;;;;;;;;;;;;;23.44;65.17;101303.81;7407413;19;1849;-68
2022/09/07 01:08:30;;;;;;;;;;;;;;;23.46;65.22;101307.19;7411802;19;1568;-68
2022/09/07 01:10:59;;;;;;;;;;;;;;;23.47;65.27;101291.84;7410611;19;1605;-61
2022/09/07 01:13:28;;;;;;;;;;;;;;;23.46;65.06;101300.94;7411205;19;1639;-60
2022/09/07 01:16:01;;;;;;;;;;;;;;;23.47;65.31;101294.53;7411132;19;972;-60
2022/09/07 01:18:37;;;;;;;;;;;;;;;23.48;65.27;101310.59;7411292;19;951;-60
2022/09/07 01:21:18;;;;;;;;;;;;;;;23.42;65.31;101287.75;7411408;19;1051;-60
2022/09/07 01:24:04;;;;;;;;;;;;;;;23.48;65.25;101312.47;7408627;19;1737;-61
2022/09/07 01:26:53;;;;;;;;;;;;;;;23.46;65.28;101285.59;7407916;19;1855;-61
2022/09/07 01:29:25;;;;;;;;;;;;;;;23.47;65.23;101287.28;7410991;19;1571;-60
2022/09/07 01:32:00;;;;;;;;;;;;;;;23.47;65.01;101286.44;7410394;19;1551;-60
2022/09/07 01:34:28;;;;;;;;;;;;;;;23.48;65.18;101298.97;7409076;19;1634;-60
2022/09/07 01:36:59;;;;;;;;;;;;;;;23.49;65.27;101295.25;7410583;19;980;-61
2022/09/07 01:39:32;;;;;;;;;;;;;;;23.49;65.21;101300.66;7409189;19;1732;-60
2022/09/07 01:42:03;;;;;;;;;;;;;;;23.47;65.29;101281.06;7409083;19;1690;-61
2022/09/07 01:44:35;;;;;;;;;;;;;;;23.49;65.12;101300.66;7407962;19;1599;-60
2022/09/07 01:47:06;;;;;;;;;;;;;;;23.49;65.33;101295.25;7407963;19;1853;-60
2022/09/07 01:49:38;;;;;;;;;;;;;;;23.46;65.23;101282.03;7409783;19;1646;-61
2022/09/07 01:52:08;;;;;;;;;;;;;;;23.44;65.21;101282.22;7408750;19;961;-68
2022/09/07 01:54:43;;;;;;;;;;;;;;;23.46;65.13;101280.22;7408015;19;1716;-68
2022/09/07 01:57:14;;;;;;;;;;;;;;;23.45;64.96;101277.66;7406901;19;1622;-68
2022/09/07 01:59:47;;;;;;;;;;;;;;;23.43;65.27;101275.94;7405581;19;1768;-68
2022/09/07 02:02:18;;;;;;;;;;;;;;;23.48;65.26;101288.16;7400145;19;1749;-68
2022/09/07 02:04:50;;;;;;;;;;;;;;;23.47;65.18;101284.59;7408117;19;1031;-68
2022/09/07 02:07:21;;;;;;;;;;;;;;;23.45;65.10;101285.75;7406551;19;1862;-68
2022/09/07 02:09:52;;;;;;;;;;;;;;;23.45;65.03;101280.34;7408437;19;1678;-68
2022/09/07 02:12:23;;;;;;;;;;;;;;;23.45;65.16;101283.06;7409018;19;1535;-68
2022/09/07 02:14:57;;;;;;;;;;;;;;;23.43;65.22;101292.13;7409238;19;1607;-68
2022/09/07 02:17:30;;;;;;;;;;;;;;;23.45;65.23;101269.56;7410257;19;997;-68
2022/09/07 02:20:03;;;;;;;;;;;;;;;23.48;65.08;101277.38;7407125;19;1665;-60
2022/09/07 02:22:34;;;;;;;;;;;;;;;23.42;65.00;101278.81;7407699;19;1650;-60
2022/09/07 02:25:05;;;;;;;;;;;;;;;23.43;65.15;101273.25;7409383;19;1074;-60
2022/09/07 02:27:35;;;;;;;;;;;;;;;23.47;65.18;101281.91;7405526;19;1852;-60
2022/09/07 02:30:07;;;;;;;;;;;;;;;23.43;65.27;101286.75;7408382;19;1548;-60
2022/09/07 02:32:35;;;;;;;;;;;;;;;23.46;64.95;101284.72;7407497;19;1559;-61
2022/09/07 02:35:04;;;;;;;;;;;;;;;23.49;64.96;101296.09;7408009;19;987;-61
2022/09/07 02:37:33;;;;;;;;;;;;;;;23.41;65.37;101283.34;7409001;19;1769;-60
2022/09/07 02:40:01;;;;;;;;;;;;;;;23.43;65.31;101277.81;7408024;19;1784;-60
2022/09/07 02:42:32;;;;;;;;;;;;;;;23.42;65.11;101285.06;7407895;19;1611;-60
2022/09/07 02:45:01;;;;;;;;;;;;;;;23.49;65.02;101295.25;7408208;19;1559;-60
2022/09/07 02:47:38;;;;;;;;;;;;;;;23.44;64.98;101287.63;7406207;19;1833;-60
2022/09/07 02:50:13;;;;;;;;;;;;;;;23.48;64.93;101293.56;7407726;19;1532;-60
2022/09/07 02:52:46;;;;;;;;;;;;;;;23.45;65.16;101285.75;7408256;19;1077;-60
2022/09/07 02:55:21;;;;;;;;;;;;;;;23.42;64.92;101281.53;7408213;19;1701;-60
2022/09/07 02:57:55;;;;;;;;;;;;;;;23.41;65.11;101293.31;7404887;19;1694;-60
2022/09/07 03:00:25;;;;;;;;;;;;;;;23.46;65.03;101280.22;7407294;19;1630;-60
2022/09/07 03:03:01;;;;;;;;;;;;;;;23.44;65.17;101290.31;7403858;19;1619;-60
2022/09/07 03:05:34;;;;;;;;;;;;;;;23.40;65.29;101292.47;7405880;19;1626;-60
2022/09/07 03:08:05;;;;;;;;;;;;;;;23.43;64.87;101288.59;7407360;19;956;-61
2022/09/07 03:10:34;;;;;;;;;;;;;;;23.42;64.97;101293.16;7408360;19;1000;-61
2022/09/07 03:13:03;;;;;;;;;;;;;;;23.41;65.16;101290.59;7407024;19;1765;-61
2022/09/07 03:15:31;;;;;;;;;;;;;;;23.50;64.94;101303.19;7407116;19;1760;-61
2022/09/07 03:18:02;;;;;;;;;;;;;;;23.39;64.96;101285.34;7407181;19;1638;-69
2022/09/07 03:20:31;;;;;;;;;;;;;;;23.46;64.66;101291.00;7407058;19;1641;-69
2022/09/07 03:22:59;;;;;;;;;;;;;;;23.42;64.91;101292.31;7406827;19;1614;-69
2022/09/07 03:25:28;;;;;;;;;;;;;;;23.46;64.91;101296.41;7407965;19;921;-69
2022/09/07 03:27:56;;;;;;;;;;;;;;;23.45;64.99;101294.69;7405011;19;1841;-69
2022/09/07 03:30:24;;;;;;;;;;;;;;;23.45;64.96;101294.69;7406604;19;1563;-69
2022/09/07 03:32:53;;;;;;;;;;;;;;;23.38;65.01;101291.75;7406352;19;1551;-69
2022/09/07 03:35:24;;;;;;;;;;;;;;;23.46;64.98;101299.09;7406671;19;1622;-69
2022/09/07 03:37:52;;;;;;;;;;;;;;;23.42;65.09;101301.25;7407230;19;1058;-69
2022/09/07 03:40:21;;;;;;;;;;;;;;;23.43;65.02;101297.53;7406411;19;1772;-69
2022/09/07 03:42:50;;;;;;;;;;;;;;;23.43;64.97;101285.91;7406076;19;1788;-69
2022/09/07 03:45:19;;;;;;;;;;;;;;;23.50;64.80;101307.75;7405927;19;1667;-69
2022/09/07 03:47:48;;;;;;;;;;;;;;;23.46;64.78;101309.03;7404535;19;1849;-69
2022/09/07 03:50:16;;;;;;;;;;;;;;;23.47;64.64;101313.44;7405929;19;1618;-64
2022/09/07 03:52:47;;;;;;;;;;;;;;;23.46;64.86;101303.63;7406464;19;985;-69
2022/09/07 03:55:16;;;;;;;;;;;;;;;23.42;65.10;101311.22;7405821;19;1673;-69
2022/09/07 03:57:44;;;;;;;;;;;;;;;23.52;64.52;101306.59;7405392;19;1685;-69
2022/09/07 04:00:13;;;;;;;;;;;;;;;23.46;64.66;101326.09;7405570;19;1642;-69
2022/09/07 04:02:42;;;;;;;;;;;;;;;23.48;64.91;101315.16;7403570;19;1739;-69
2022/09/07 04:05:10;;;;;;;;;;;;;;;23.43;64.83;101311.03;7405332;19;1621;-69
2022/09/07 04:07:39;;;;;;;;;;;;;;;23.40;65.09;101324.84;7404571;19;1895;-69
2022/09/07 04:10:10;;;;;;;;;;;;;;;23.38;64.88;101328.72;7404586;19;1681;-69
2022/09/07 04:12:39;;;;;;;;;;;;;;;23.46;64.70;101331.50;7405333;19;1622;-69
2022/09/07 04:15:07;;;;;;;;;;;;;;;23.40;64.89;101319.44;7405079;19;1602;-69
2022/09/07 04:17:36;;;;;;;;;;;;;;;23.51;64.62;101309.44;7404754;19;1555;-69
2022/09/07 04:20:05;;;;;;;;;;;;;;;23.50;64.62;101329.34;7404334;19;1627;-69
2022/09/07 04:22:33;;;;;;;;;;;;;;;23.41;64.70;101340.03;7405132;19;996;-69
2022/09/07 04:25:02;;;;;;;;;;;;;;;23.45;64.74;101337.03;7405002;19;1764;-69
2022/09/07 04:27:33;;;;;;;;;;;;;;;23.41;64.77;101331.09;7404200;19;1859;-69
2022/09/07 04:30:01;;;;;;;;;;;;;;;23.39;64.64;101344.72;7403984;19;1567;-69
2022/09/07 04:32:30;;;;;;;;;;;;;;;23.43;65.02;101335.31;7403993;19;1551;-61
2022/09/07 04:34:58;;;;;;;;;;;;;;;23.40;64.93;101332.94;7403351;19;1555;-62
2022/09/07 04:37:27;;;;;;;;;;;;;;;23.37;64.94;101343.19;7403764;19;1848;-61
2022/09/07 04:39:55;;;;;;;;;;;;;;;23.40;65.02;101341.03;7404207;19;1682;-61
2022/09/07 04:42:24;;;;;;;;;;;;;;;23.37;65.05;101357.53;7404883;19;1555;-61
2022/09/07 04:44:55;;;;;;;;;;;;;;;23.36;65.01;101349.59;7404094;19;1705;-61
2022/09/07 04:47:23;;;;;;;;;;;;;;;23.37;64.80;101354.81;7401587;19;1861;-61
2022/09/07 04:49:52;;;;;;;;;;;;;;;23.35;65.08;101335.22;7403626;19;1555;-61
2022/09/07 04:52:20;;;;;;;;;;;;;;;23.39;65.07;101349.28;7404513;19;998;-61
2022/09/07 04:54:50;;;;;;;;;;;;;;;23.36;65.06;101361.25;7403183;19;1684;-61
2022/09/07 04:57:20;;;;;;;;;;;;;;;23.37;64.85;101360.22;7403768;19;1551;-61
2022/09/07 04:59:49;;;;;;;;;;;;;;;23.37;65.06;101352.13;7401813;19;1547;-61
2022/09/07 05:02:20;;;;;;;;;;;;;;;23.40;64.95;101351.84;7399606;19;1496;-61
2022/09/07 05:04:48;;;;;;;;;;;;;;;23.39;64.94;101346.59;7401489;19;1075;-61
2022/09/07 05:07:17;;;;;;;;;;;;;;;23.43;64.79;101350.69;7401214;19;1860;-61
2022/09/07 05:09:45;;;;;;;;;;;;;;;23.42;64.73;101355.22;7400842;19;1705;-61
2022/09/07 05:12:13;;;;;;;;;;;;;;;23.43;64.89;101351.53;7401652;19;1551;-61
2022/09/07 05:14:42;;;;;;;;;;;;;;;23.45;64.87;101358.63;7402097;19;1641;-61
2022/09/07 05:17:10;;;;;;;;;;;;;;;23.47;64.85;101359.34;7402660;19;1606;-61
2022/09/07 05:19:42;;;;;;;;;;;;;;;23.47;64.64;101349.38;7403117;19;1543;-61
2022/09/07 05:22:10;;;;;;;;;;;;;;;23.46;64.50;101341.41;7411434;19;1067;-61
2022/09/07 05:24:38;;;;;;;;;;;;;;;23.50;64.74;101348.25;7409356;19;1671;-61
2022/09/07 05:27:07;;;;;;;;;;;;;;;23.50;64.51;101356.34;7409161;19;1829;-69
2022/09/07 05:29:35;;;;;;;;;;;;;;;23.52;64.38;101338.16;7408926;19;1614;-69
2022/09/07 05:32:04;;;;;;;;;;;;;;;23.54;64.55;101355.03;7408894;19;1555;-69
2022/09/07 05:34:32;;;;;;;;;;;;;;;23.54;64.46;101346.94;7410392;19;1634;-69
2022/09/07 05:37:03;;;;;;;;;;;;;;;23.56;64.53;101358.44;7411181;19;990;-69
2022/09/07 05:39:32;;;;;;;;;;;;;;;23.61;64.41;101348.00;7408843;19;1655;-69
2022/09/07 05:42:00;;;;;;;;;;;;;;;23.60;64.41;101357.13;7409480;19;1631;-69
2022/09/07 05:44:30;;;;;;;;;;;;;;;23.60;64.40;101341.78;7408899;19;1547;-61
2022/09/07 05:46:59;;;;;;;;;;;;;;;23.61;64.47;101342.63;7407551;19;1871;-62
2022/09/07 05:49:27;;;;;;;;;;;;;;;23.65;64.20;101333.22;7408298;19;1576;-61
2022/09/07 05:51:56;;;;;;;;;;;;;;;23.71;64.04;101351.50;7410553;19;992;-61
2022/09/07 05:54:27;;;;;;;;;;;;;;;23.73;63.81;101343.25;7408163;19;1740;-61
2022/09/07 05:56:55;;;;;;;;;;;;;;;23.74;64.00;101342.25;7409051;19;1548;-61
2022/09/07 05:59:24;;;;;;;;;;;;;;;23.76;64.08;101340.25;7409835;19;1610;-61
2022/09/07 06:01:52;;;;;;;;;;;;;;;23.78;63.84;101332.88;7407883;19;1622;-61
2022/09/07 06:04:21;;;;;;;;;;;;;;;23.77;63.76;101348.22;7410233;19;990;-61
2022/09/07 06:06:49;;;;;;;;;;;;;;;23.81;63.87;101332.56;7407923;19;1864;-61
2022/09/07 06:09:17;;;;;;;;;;;;;;;23.78;64.11;101338.28;7409198;19;1626;-61
2022/09/07 06:11:48;;;;;;;;;;;;;;;23.83;63.75;101341.34;7407795;19;1531;-61
2022/09/07 06:14:17;;;;;;;;;;;;;;;23.80;64.03;101342.53;7407215;19;1734;-61
2022/09/07 06:16:45;;;;;;;;;;;;;;;23.82;63.84;101343.22;7408657;19;1630;-61
2022/09/07 06:19:14;;;;;;;;;;;;;;;23.81;63.99;101338.84;7409084;19;1554;-61
2022/09/07 06:21:42;;;;;;;;;;;;;;;23.82;64.09;101335.09;7408968;19;961;-61
2022/09/07 06:24:11;;;;;;;;;;;;;;;23.86;63.92;101334.81;7404754;19;1733;-62
2022/09/07 06:26:39;;;;;;;;;;;;;;;23.82;64.07;101329.72;7407573;19;1573;-61
2022/09/07 06:29:11;;;;;;;;;;;;;;;23.87;63.66;101341.91;7408925;19;1508;-61
2022/09/07 06:31:39;;;;;;;;;;;;;;;23.88;63.64;101343.63;7409105;19;987;-69
2022/09/07 06:34:08;;;;;;;;;;;;;;;23.86;63.84;101346.47;7408245;19;1654;-69
2022/09/07 06:36:36;;;;;;;;;;;;;;;23.86;63.66;101342.91;7408037;19;1622;-70
2022/09/07 06:39:05;;;;;;;;;;;;;;;23.86;63.96;101343.75;7407826;19;1563;-70
2022/09/07 06:41:33;;;;;;;;;;;;;;;23.87;63.92;101347.31;7406720;19;1630;-70
2022/09/07 06:44:02;;;;;;;;;;;;;;;23.89;63.89;101356.94;7408171;19;1613;-69
2022/09/07 06:46:33;;;;;;;;;;;;;;;23.91;64.07;101348.69;7408747;19;991;-70
2022/09/07 06:49:01;;;;;;;;;;;;;;;23.90;64.08;101347.00;7406150;19;1861;-70
2022/09/07 06:51:31;;;;;;;;;;;;;;;23.89;63.70;101324.53;7408075;19;1698;-70
2022/09/07 06:54:00;;;;;;;;;;;;;;;23.90;64.00;101341.59;7405787;19;1703;-69
2022/09/07 06:56:29;;;;;;;;;;;;;;;23.93;64.05;101352.09;7406255;19;1630;-69
2022/09/07 06:58:58;;;;;;;;;;;;;;;23.90;63.73;101353.25;7407151;19;1523;-69
2022/09/07 07:01:27;;;;;;;;;;;;;;;23.92;63.94;101351.25;7406590;19;1626;-69
2022/09/07 07:03:58;;;;;;;;;;;;;;;23.93;63.75;101349.38;7408820;19;1047;-70
2022/09/07 07:06:34;;;;;;;;;;;;;;;23.93;63.94;101362.91;7405064;19;1592;-70
2022/09/07 07:09:02;;;;;;;;;;;;;;;23.94;63.84;101356.50;7404532;19;1857;-70
2022/09/07 07:11:31;;;;;;;;;;;;;;;23.93;63.82;101360.19;7407676;19;1547;-70
2022/09/07 07:13:59;;;;;;;;;;;;;;;23.93;63.84;101357.50;7407515;19;1547;-70
2022/09/07 07:16:28;;;;;;;;;;;;;;;23.92;63.87;101343.16;7406675;19;1539;-70
2022/09/07 07:18:59;;;;;;;;;;;;;;;23.93;64.12;101347.53;7408283;19;996;-70
2022/09/07 07:21:28;;;;;;;;;;;;;;;23.95;64.00;101331.16;7405289;19;1705;-69
2022/09/07 07:23:57;;;;;;;;;;;;;;;23.91;64.04;101348.69;7405755;19;1540;-69
2022/09/07 07:26:26;;;;;;;;;;;;;;;23.96;63.80;101362.59;7407097;19;1649;-70
2022/09/07 07:28:55;;;;;;;;;;;;;;;23.93;63.94;101341.28;7404589;19;1857;-70
2022/09/07 07:31:25;;;;;;;;;;;;;;;23.95;64.09;101339.28;7407401;19;1043;-70
2022/09/07 07:33:54;;;;;;;;;;;;;;;23.96;63.89;101341.84;7404637;19;1744;-70
2022/09/07 07:36:26;;;;;;;;;;;;;;;23.95;64.03;101341.97;7404673;19;1638;-69
2022/09/07 07:38:56;;;;;;;;;;;;;;;23.99;64.00;101346.06;7405286;19;1539;-69
2022/09/07 07:41:30;;;;;;;;;;;;;;;24.02;64.06;101348.47;7402787;19;1563;-69
2022/09/07 07:43:59;;;;;;;;;;;;;;;24.02;63.80;101349.31;7404619;19;1618;-69
2022/09/07 07:46:28;;;;;;;;;;;;;;;24.00;63.98;101343.22;7405773;19;1622;-69
2022/09/07 07:48:57;;;;;;;;;;;;;;;24.00;63.98;101347.78;7405368;19;1865;-69
2022/09/07 07:51:28;;;;;;;;;;;;;;;24.00;64.10;101323.47;7406519;19;980;-70
2022/09/07 07:53:56;;;;;;;;;;;;;;;23.99;64.00;101335.25;7403383;19;1654;-69
2022/09/07 07:56:25;;;;;;;;;;;;;;;24.01;63.92;101339.53;7406299;19;1614;-69
2022/09/07 07:58:53;;;;;;;;;;;;;;;23.98;64.00;101338.97;7404937;19;1626;-70
2022/09/07 08:01:22;;;;;;;;;;;;;;;23.99;63.89;101344.25;7404509;19;1500;-70
2022/09/07 08:03:50;;;;;;;;;;;;;;;24.00;64.14;101336.97;7406034;19;1152;-70
2022/09/07 08:06:20;;;;;;;;;;;;;;;23.98;64.07;101347.09;7403807;19;1737;-69
2022/09/07 08:08:51;;;;;;;;;;;;;;;24.02;63.78;101361.97;7403208;19;1849;-69
2022/09/07 08:11:20;;;;;;;;;;;;;;;24.01;63.97;101366.53;7405173;19;1554;-70
2022/09/07 08:13:51;;;;;;;;;;;;;;;24.00;64.14;101354.03;7404279;19;1544;-70
2022/09/07 08:16:19;;;;;;;;;;;;;;;24.05;64.16;101352.72;7405478;19;1713;-69
2022/09/07 08:18:48;;;;;;;;;;;;;;;24.03;64.02;101355.56;7405714;19;984;-70
2022/09/07 08:21:17;;;;;;;;;;;;;;;24.02;63.95;101353.88;7403699;19;1677;-70
2022/09/07 08:23:45;;;;;;;;;;;;;;;24.01;63.82;101344.06;7403985;19;1642;-69
2022/09/07 08:26:16;;;;;;;;;;;;;;;24.04;63.90;101357.28;7404725;19;1610;-69
2022/09/07 08:28:45;;;;;;;;;;;;;;;24.06;63.90;101352.56;7404062;19;1853;-69
2022/09/07 08:31:14;;;;;;;;;;;;;;;23.99;63.86;101343.38;7406029;19;1007;-70
2022/09/07 08:33:43;;;;;;;;;;;;;;;24.01;64.04;101342.22;7401586;19;1647;-69
2022/09/07 08:36:13;;;;;;;;;;;;;;;23.99;63.85;101338.84;7404786;19;1618;-70
2022/09/07 08:38:41;;;;;;;;;;;;;;;23.99;64.33;101335.25;7404659;19;1548;-70
2022/09/07 08:41:32;;;;;;;;;;;;;;;23.97;63.97;101332.75;7405817;19;992;-69
2022/09/07 08:44:02;;;;;;;;;;;;;;;23.98;64.09;101334.41;7402816;19;1808;-69
2022/09/07 08:46:34;;;;;;;;;;;;;;;24.00;63.94;101345.91;7403847;19;1535;-69
2022/09/07 08:49:04;;;;;;;;;;;;;;;24.02;64.01;101340.38;7404301;19;1853;-69
2022/09/07 08:51:35;;;;;;;;;;;;;;;24.01;64.01;101327.84;7403635;19;1772;-69
2022/09/07 08:54:03;;;;;;;;;;;;;;;24.01;64.12;101335.94;7404031;19;1576;-69
2022/09/07 08:56:37;;;;;;;;;;;;;;;24.07;64.28;101323.69;7411751;19;1547;-70
2022/09/07 08:59:10;;;;;;;;;;;;;;;24.05;63.88;101313.03;7412075;19;1559;-69
2022/09/07 09:01:39;;;;;;;;;;;;;;;24.05;64.21;101301.38;7410005;19;1626;-69
2022/09/07 09:04:13;;;;;;;;;;;;;;;24.04;64.09;101305.94;7412229;19;950;-69
2022/09/07 09:06:46;;;;;;;;;;;;;;;24.05;64.17;101302.22;7409852;19;1667;-69
2022/09/07 09:09:20;;;;;;;;;;;;;;;24.06;64.34;101313.91;7408734;19;1861;-69
2022/09/07 09:11:58;;;;;;;;;;;;;;;24.05;64.15;101301.38;7410797;19;1003;-70
2022/09/07 09:14:30;;;;;;;;;;;;;;;23.99;64.17;101295.59;7411230;19;1677;-69
2022/09/07 09:17:00;;;;;;;;;;;;;;;24.01;64.29;101290.91;7410799;19;1686;-70
2022/09/07 09:19:52;;;;;;;;;;;;;;;24.01;64.32;101287.31;7410420;19;1651;-69
2022/09/07 09:22:22;;;;;;;;;;;;;;;24.04;64.33;101289.72;7408755;19;1900;-70
2022/09/07 09:24:54;;;;;;;;;;;;;;;24.04;63.99;101281.63;7410224;19;1670;-61
2022/09/07 09:27:25;;;;;;;;;;;;;;;24.08;64.02;101274.06;7411088;19;1520;-61
2022/09/07 09:29:53;;;;;;;;;;;;;;;24.07;64.22;101284.00;7407294;19;1860;-61
2022/09/07 09:32:38;;;;;;;;;;;;;;;24.08;64.15;101274.06;7409019;19;1634;-62
2022/09/07 09:35:14;;;;;;;;;;;;;;;24.11;64.10;101281.84;7407100;19;1614;-61
2022/09/07 09:37:43;;;;;;;;;;;;;;;24.13;63.95;101275.28;7409843;19;995;-61
2022/09/07 09:40:20;;;;;;;;;;;;;;;24.09;64.29;101276.59;7410572;19;1657;-61
2022/09/07 09:43:00;;;;;;;;;;;;;;;24.14;64.01;101273.44;7407788;19;1583;-61
2022/09/07 09:45:30;;;;;;;;;;;;;;;24.14;64.07;101278.84;7408525;19;1555;-61
2022/09/07 09:47:59;;;;;;;;;;;;;;;24.09;63.87;101268.47;7409681;19;1860;-61
2022/09/07 09:50:31;;;;;;;;;;;;;;;24.12;63.98;101273.56;7409699;19;1612;-61
2022/09/07 09:52:59;;;;;;;;;;;;;;;24.13;64.18;101271.72;7410722;19;1000;-61
2022/09/07 09:55:30;;;;;;;;;;;;;;;24.13;63.95;101272.59;7410406;19;1706;-61
2022/09/07 09:58:02;;;;;;;;;;;;;;;24.12;63.96;101253.81;7409390;19;1784;-61
2022/09/07 10:00:32;;;;;;;;;;;;;;;24.13;64.04;101259.06;7408677;19;1643;-62
2022/09/07 10:03:05;;;;;;;;;;;;;;;24.14;63.87;101268.88;7407729;19;1544;-62
2022/09/07 10:05:36;;;;;;;;;;;;;;;24.13;64.12;101261.78;7408358;19;1551;-69
2022/09/07 10:08:06;;;;;;;;;;;;;;;24.17;63.95;101254.19;7410300;19;1865;-69
2022/09/07 10:10:34;;;;;;;;;;;;;;;24.14;63.87;101260.75;7410232;19;913;-70
2022/09/07 10:13:07;;;;;;;;;;;;;;;24.16;64.01;101247.94;7409160;19;1673;-69
2022/09/07 10:15:37;;;;;;;;;;;;;;;24.14;64.16;101246.41;7409393;19;1772;-69
2022/09/07 10:18:08;;;;;;;;;;;;;;;24.14;64.20;101236.44;7408910;19;1761;-69
2022/09/07 10:20:38;;;;;;;;;;;;;;;24.15;64.24;101253.50;7409395;19;1606;-69
2022/09/07 10:23:07;;;;;;;;;;;;;;;24.11;64.39;101247.56;7409253;19;1544;-69
2022/09/07 10:25:36;;;;;;;;;;;;;;;24.17;64.32;101244.25;7409574;19;988;-69
2022/09/07 10:28:18;;;;;;;;;;;;;;;24.14;64.34;101252.66;7408343;19;1862;-69
2022/09/07 10:30:53;;;;;;;;;;;;;;;24.15;64.18;101238.16;7408596;19;1674;-69
2022/09/07 10:33:25;;;;;;;;;;;;;;;24.14;64.41;101232.91;7405106;19;1683;-61
2022/09/07 10:35:58;;;;;;;;;;;;;;;24.15;64.14;101227.34;7408955;19;1544;-70
2022/09/07 10:38:28;;;;;;;;;;;;;;;24.13;64.05;101234.75;7409188;19;1051;-70
2022/09/07 10:41:02;;;;;;;;;;;;;;;24.15;64.33;101224.63;7409026;19;1742;-69
2022/09/07 10:43:41;;;;;;;;;;;;;;;24.15;64.17;101218.38;7408739;19;1619;-69
2022/09/07 10:46:18;;;;;;;;;;;;;;;24.20;64.09;101225.00;7408644;19;1674;-69
2022/09/07 10:48:50;;;;;;;;;;;;;;;24.16;64.16;101211.97;7407607;19;1865;-69
2022/09/07 10:51:20;;;;;;;;;;;;;;;24.17;64.04;101206.41;7408005;19;1638;-69
2022/09/07 10:53:55;;;;;;;;;;;;;;;24.18;64.03;101216.19;7405486;19;1754;-69
2022/09/07 10:56:25;;;;;;;;;;;;;;;24.16;64.19;101215.50;7408001;19;1629;-69
2022/09/07 10:59:03;;;;;;;;;;;;;;;24.20;64.25;101208.78;7407906;19;1012;-69
2022/09/07 11:01:37;;;;;;;;;;;;;;;24.14;64.23;101206.72;7404898;19;2083;-69
2022/09/07 11:04:11;;;;;;;;;;;;;;;24.11;64.04;101190.81;7407011;19;1512;-69
2022/09/07 11:06:41;;;;;;;;;;;;;;;24.16;64.34;101204.69;7407251;19;1551;-69
2022/09/07 11:09:28;;;;;;;;;;;;;;;24.14;64.42;101197.78;7405181;19;1858;-69
2022/09/07 11:12:01;;;;;;;;;;;;;;;24.15;64.23;101199.44;7407329;19;921;-69
2022/09/07 11:14:34;;;;;;;;;;;;;;;24.16;64.18;101202.00;7408080;19;952;-69
2022/09/07 11:17:05;;;;;;;;;;;;;;;24.16;64.32;101185.78;7406331;19;1026;-69
2022/09/07 11:19:35;;;;;;;;;;;;;;;24.14;64.10;101182.41;7406900;19;1651;-69
2022/09/07 11:22:07;;;;;;;;;;;;;;;24.15;64.23;101189.50;7405931;19;1694;-69
2022/09/07 11:24:41;;;;;;;;;;;;;;;24.17;64.21;101181.22;7406861;19;1547;-69
2022/09/07 11:27:12;;;;;;;;;;;;;;;24.13;64.22;101167.22;7405196;19;1622;-69
2022/09/07 11:29:47;;;;;;;;;;;;;;;24.15;64.44;101180.53;7404056;19;1849;-69
2022/09/07 11:32:20;;;;;;;;;;;;;;;24.14;64.39;101166.19;7405942;19;1036;-69
2022/09/07 11:34:52;;;;;;;;;;;;;;;24.17;64.23;101181.22;7406517;19;1776;-69
2022/09/07 11:37:22;;;;;;;;;;;;;;;24.15;64.24;101167.91;7404321;19;1694;-69
2022/09/07 11:39:54;;;;;;;;;;;;;;;24.17;64.28;101162.31;7404896;19;1570;-69
2022/09/07 11:42:26;;;;;;;;;;;;;;;24.15;64.25;101159.78;7404617;19;1610;-69
2022/09/07 11:44:59;;;;;;;;;;;;;;;24.15;64.29;101167.91;7406419;19;1540;-69
2022/09/07 11:47:29;;;;;;;;;;;;;;;24.14;64.17;101166.19;7406076;19;1641;-69
2022/09/07 11:49:58;;;;;;;;;;;;;;;24.14;64.24;101157.25;7404610;19;1853;-62
2022/09/07 11:52:32;;;;;;;;;;;;;;;24.17;64.24;101160.47;7406365;19;982;-62
2022/09/07 11:55:03;;;;;;;;;;;;;;;24.18;64.40;101167.56;7403648;19;1670;-62
2022/09/07 11:57:38;;;;;;;;;;;;;;;24.18;64.19;101155.91;7404931;19;1691;-61
2022/09/07 12:00:14;;;;;;;;;;;;;;;24.15;64.30;101148.97;7405823;19;1543;-62
2022/09/07 12:02:50;;;;;;;;;;;;;;;24.16;64.52;101147.94;7403460;19;1555;-61
2022/09/07 12:05:24;;;;;;;;;;;;;;;24.14;64.46;101144.56;7405548;19;1615;-62
2022/09/07 12:08:00;;;;;;;;;;;;;;;24.18;64.48;101154.03;7406057;19;1007;-62
2022/09/07 12:10:40;;;;;;;;;;;;;;;24.14;64.36;101149.13;7404649;19;1852;-61
2022/09/07 12:13:27;;;;;;;;;;;;;;;24.14;64.50;101141.03;7405103;19;1690;-61
2022/09/07 12:16:02;;;;;;;;;;;;;;;24.12;64.24;101124.13;7403652;19;1769;-61
2022/09/07 12:18:43;;;;;;;;;;;;;;;24.15;64.28;101131.91;7405057;19;1642;-61
2022/09/07 12:21:26;;;;;;;;;;;;;;;24.14;64.56;101139.16;7405274;19;1694;-61
2022/09/07 12:23:54;;;;;;;;;;;;;;;24.15;64.30;101135.47;7402418;19;1689;-61
2022/09/07 12:26:38;;;;;;;;;;;;;;;24.15;64.48;101134.59;7405394;19;1631;-61
2022/09/07 12:29:21;;;;;;;;;;;;;;;24.17;64.56;101132.59;7410288;19;1864;-61
2022/09/07 12:31:53;;;;;;;;;;;;;;;24.17;64.36;101135.28;7420080;19;1002;-62
2022/09/07 12:34:36;;;;;;;;;;;;;;;24.13;64.30;101118.56;7417428;19;1678;-62
2022/09/07 12:37:24;;;;;;;;;;;;;;;24.15;64.34;101124.66;7413872;19;1544;-61
2022/09/07 12:39:52;;;;;;;;;;;;;;;24.19;64.31;101136.84;7418467;19;1697;-61
2022/09/07 12:42:25;;;;;;;;;;;;;;;24.18;64.28;101118.06;7417991;19;1667;-61
2022/09/07 12:45:19;;;;;;;;;;;;;;;24.16;64.16;101130.91;7419288;19;1633;-62
2022/09/07 12:47:57;;;;;;;;;;;;;;;24.16;64.29;101109.28;7416993;19;1673;-61
2022/09/07 12:50:29;;;;;;;;;;;;;;;24.18;64.46;101112.69;7417180;19;1860;-61
2022/09/07 12:53:13;;;;;;;;;;;;;;;24.04;64.33;101087.09;7418468;19;999;-61
2022/09/07 12:55:53;;;;;;;;;;;;;;;24.16;64.26;101115.53;7418822;19;1059;-61
2022/09/07 12:58:28;;;;;;;;;;;;;;;24.15;64.29;101116.56;7418871;19;1816;-61
2022/09/07 13:01:04;;;;;;;;;;;;;;;24.15;64.24;101108.44;7417933;19;1749;-69
2022/09/07 13:03:57;;;;;;;;;;;;;;;24.14;64.51;101101.34;7418833;19;1752;-69
2022/09/07 13:06:31;;;;;;;;;;;;;;;24.18;64.28;101109.97;7415750;19;1678;-70
2022/09/07 13:09:12;;;;;;;;;;;;;;;24.13;64.29;101102.34;7416652;19;1868;-69